Granada, Spain

8:07 PM CEST en Abril 28, 2017 (GMT +0200)
Granada | | Change Station

Alt 1834 ft 37.18 °N, 3.78 °W | Updated 7 minutes ago

Lluvia
Lluvia
54 ° F
Sensación térmica 54 ° F
N
5
Viento Variable Viento desde ESE

Hoy
Alta -- | Baja -- ° F
--% Posibilidad de precipitaciones
Ayer
Alta -- | Baja -- ° F
Precip. -- pul
Presión 29.89 pul
Visibilidad 6.2 Millas
Nubes Baja 1500 ft
Muy nublado 2500 ft
Nublado 3500 ft
Punto de rocío 52 ° F
Humedad 94%
Precipitaciones 0.00 pul
Espesor de la nieve No disponible.
7:24 AM 9:01 PM
Creciente, 7% visible
METAR LEGR 281800Z 12004KT 070V170 9999 -RA FEW015 BKN025 OVC035 12/11 Q1012
Presión 29.89 pul
Visibilidad 6.2 Millas
Nubes Baja 1500 ft
Muy nublado 2500 ft
Nublado 3500 ft
Punto de rocío 52 ° F
Humedad 94%
Precipitaciones 0.00 pul
Espesor de la nieve No disponible.
7:24 AM 9:01 PM
Creciente, 7% visible
METAR LEGR 281800Z 12004KT 070V170 9999 -RA FEW015 BKN025 OVC035 12/11 Q1012

Get Severe Weather Alerts

Thanks for signing up!

Be on the lookout for a verification email in your inbox.

You'll start receiving the daily forecast at 8 AM.

×

10-Day Weather Forecast

×

Almanac

Astronomía

Apr. 28, 2017 Salida Puesta
Hora real
Crepúsculo civil
Crepúsculo náutico
Crepúsculo astronómico
Luna
Horas de luz
Horas de luz
Tomorrow will be .
, % of the Moon is Illuminated

Extremos de hoy

Máximos del país Bajas del país

Community

WunderPhotos

WunderBlog® & News

Nearby

Calidad del aire

  Calidad del aire Índice AQ Contaminante
Not available.

Grosos de nieve

Estación Profundido Altura

Actividad de terremotos

Ciudad Distance Mag. Tiempo y dato
Magnitud mínima muestra es 2,5.

Temperaturas de aguas costeras

Lugar Temperatura

Stations

Estaciones meteorológicas cercanas

Ubicación de la estación Temp. Vientos helados Punto de rocío Humedad Viento Precip. Alt Actualizado Tipo